Wardeh — ODUS — position and weather

sailwx.info

Track history (hours):
 
Tides and Currents Weather Stations Pressure Air Temp Water Temp Dewpoint Dewpoint Depression Visibility Wind Speed Wind Dir Waves Ship Positions

Wardeh

Last reported at 2015-Mar-02 14:24 UTC. Time now 2015-Mar-06 07:31 UTC.
Position N 36°39' E 014°29'.

; draft 7.1 m.

Type: Cargo ship. MMSI: 450522000.

Date/timePositionNaut miles runAvg speedWind from/ knotsBaromVisibWave heightAir tempDewpointWater temp
2015-Mar-02 14:24N 36°39' E 014°29'1213.8
2015-Mar-02 13:33N 36°41' E 014°14'1413.9
2015-Mar-02 12:34N 36°45' E 013°58'1413.9
2015-Mar-02 11:32N 36°49' E 013°41'67113.2
2015-Feb-28 08:33N 37°29' W 000°20'1312.3
2015-Feb-28 07:32N 37°30' W 000°35'1111.7
2015-Feb-28 06:34N 37°30' W 000°50'8 7.3
2015-Feb-28 05:31N 37°34' W 000°58'5 0.4
2015-Feb-27 15:29N 37°30' W 001°02'22312.4
2015-Feb-26 21:28N 35°56' W 005°14'4 4.4
2015-Feb-26 20:33N 35°54' W 005°18'0 0.0
2015-Feb-26 19:33N 35°54' W 005°18'0 0.0
2015-Feb-26 18:33N 35°54' W 005°18'0 0.0
2015-Feb-26 17:33N 35°54' W 005°18'0 0.0
2015-Feb-26 16:33N 35°54' W 005°18'0 0.0
2015-Feb-26 15:33N 35°54' W 005°18'0 0.0
2015-Feb-26 14:33N 35°54' W 005°18'4 4.0
2015-Feb-26 13:34N 35°57' W 005°15'1 1.4
2015-Feb-26 12:34N 35°56' W 005°17'0 0.4
2015-Feb-26 11:34N 35°56' W 005°16'1 0.8
2015-Feb-26 10:33N 35°56' W 005°15'2 1.7
2015-Feb-26 09:33N 35°56' W 005°17'4 3.8
2015-Feb-26 08:33N 35°56' W 005°22'  
Track history (hours):
 
Tides and Currents Weather Stations Pressure Air Temp Water Temp Dewpoint Dewpoint Depression Visibility Wind Speed Wind Dir Waves Ship Positions

Wardeh

Last reported at 2015-Mar-02 14:24 UTC. Time now 2015-Mar-06 07:31 UTC.
Position N 36°39' E 014°29'.

; draft 7.1 m.

Type: Cargo ship. MMSI: 450522000.

Date/timePositionNaut miles runAvg speedWind from/ knotsBaromVisibWave heightAir tempDewpointWater temp
2015-Mar-02 14:24N 36°39' E 014°29'1213.8
2015-Mar-02 13:33N 36°41' E 014°14'1413.9
2015-Mar-02 12:34N 36°45' E 013°58'1413.9
2015-Mar-02 11:32N 36°49' E 013°41'67113.2
2015-Feb-28 08:33N 37°29' W 000°20'1312.3
2015-Feb-28 07:32N 37°30' W 000°35'1111.7
2015-Feb-28 06:34N 37°30' W 000°50'8 7.3
2015-Feb-28 05:31N 37°34' W 000°58'5 0.4
2015-Feb-27 15:29N 37°30' W 001°02'22312.4
2015-Feb-26 21:28N 35°56' W 005°14'4 4.4
2015-Feb-26 20:33N 35°54' W 005°18'0 0.0
2015-Feb-26 19:33N 35°54' W 005°18'0 0.0
2015-Feb-26 18:33N 35°54' W 005°18'0 0.0
2015-Feb-26 17:33N 35°54' W 005°18'0 0.0
2015-Feb-26 16:33N 35°54' W 005°18'0 0.0
2015-Feb-26 15:33N 35°54' W 005°18'0 0.0
2015-Feb-26 14:33N 35°54' W 005°18'4 4.0
2015-Feb-26 13:34N 35°57' W 005°15'1 1.4
2015-Feb-26 12:34N 35°56' W 005°17'0 0.4
2015-Feb-26 11:34N 35°56' W 005°16'1 0.8
2015-Feb-26 10:33N 35°56' W 005°15'2 1.7
2015-Feb-26 09:33N 35°56' W 005°17'4 3.8
2015-Feb-26 08:33N 35°56' W 005°22'  

Dump ship's entire track history